createdAt,value
2023-04-16T11:39:54.159Z,9.40
2023-04-16T11:42:23.707Z,9.40
2023-04-16T11:44:55.593Z,9.40
2023-04-16T11:47:24.381Z,9.40
2023-04-16T11:49:52.618Z,9.50
2023-04-16T11:52:28.162Z,9.50
2023-04-16T11:54:57.815Z,9.50
2023-04-16T11:57:27.558Z,9.50
2023-04-16T12:00:01.455Z,9.60
2023-04-16T12:02:38.220Z,9.60
2023-04-16T12:05:07.490Z,9.70
2023-04-16T12:07:45.568Z,9.60
2023-04-16T12:10:14.786Z,9.60
2023-04-16T12:12:42.571Z,9.60
2023-04-16T12:15:11.136Z,9.60
2023-04-16T12:17:39.472Z,9.60
2023-04-16T12:20:11.020Z,9.70
2023-04-16T12:22:40.343Z,9.70
2023-04-16T12:25:11.959Z,9.70
2023-04-16T12:27:46.529Z,9.80
2023-04-16T12:30:15.682Z,9.80
2023-04-16T12:32:44.301Z,9.90
2023-04-16T12:35:12.511Z,9.90
2023-04-16T12:37:40.809Z,9.90
2023-04-16T12:40:09.606Z,9.90
2023-04-16T12:42:37.731Z,10.00
2023-04-16T12:45:08.151Z,10.00
2023-04-16T12:47:36.023Z,9.90
2023-04-16T12:50:03.863Z,9.90
2023-04-16T12:52:31.869Z,9.90
2023-04-16T12:54:59.746Z,9.90
2023-04-16T12:57:28.720Z,9.90
2023-04-16T12:59:57.276Z,9.90
2023-04-16T13:02:26.837Z,9.90
2023-04-16T13:04:55.499Z,10.00
2023-04-16T13:07:24.144Z,10.00
2023-04-16T13:09:52.022Z,10.00
2023-04-16T13:12:19.883Z,10.00
2023-04-16T13:14:47.854Z,9.90
2023-04-16T13:17:15.598Z,9.90
2023-04-16T13:19:45.667Z,9.90
2023-04-16T13:22:14.017Z,9.90
2023-04-16T13:24:41.814Z,9.90
2023-04-16T13:27:09.850Z,9.80
2023-04-16T13:29:37.642Z,9.90
2023-04-16T18:30:26.110Z,9.00
2023-04-16T18:33:06.955Z,9.00
2023-04-16T18:35:42.291Z,9.00
2023-04-16T18:38:10.281Z,9.10
2023-04-16T18:40:38.644Z,9.10
2023-04-16T18:43:06.715Z,9.10
2023-04-16T18:45:36.097Z,9.10
2023-04-16T18:48:04.199Z,9.10
2023-04-16T18:50:32.122Z,9.10
2023-04-16T18:53:00.008Z,9.10
2023-04-16T18:55:27.849Z,9.10
2023-04-16T18:57:55.755Z,9.10
2023-04-16T19:00:23.729Z,9.10
2023-04-16T19:02:52.911Z,9.10
2023-04-16T19:05:21.628Z,9.10
2023-04-16T19:07:49.457Z,9.00
2023-04-16T19:10:17.589Z,9.00
2023-04-16T19:12:45.402Z,9.00
2023-04-16T19:15:14.629Z,9.00
2023-04-16T19:17:42.708Z,9.00
2023-04-16T19:20:12.624Z,9.00
2023-04-16T19:22:40.793Z,8.90
2023-04-16T19:25:09.309Z,8.90
2023-04-16T19:27:37.224Z,8.90
2023-04-16T19:30:06.221Z,8.90
2023-04-16T19:32:34.059Z,8.90
2023-04-16T19:35:01.901Z,8.90
2023-04-16T19:37:31.052Z,9.00
2023-04-16T19:39:59.692Z,8.80
2023-04-16T19:42:27.513Z,8.90
2023-04-16T19:44:55.590Z,8.90
2023-04-16T19:47:23.336Z,8.90
2023-04-16T19:49:51.262Z,8.80
2023-04-16T19:52:19.054Z,8.90
2023-04-16T19:54:48.155Z,8.80
2023-04-16T19:57:16.028Z,8.80
2023-04-16T19:59:43.794Z,8.80
2023-04-16T20:02:11.571Z,8.80
2023-04-16T20:04:39.342Z,8.70
